createdAt,value
2022-12-08T00:01:20.788Z,3.03
2022-12-08T00:03:49.256Z,3.06
2022-12-08T00:06:44.039Z,3.06
2022-12-08T00:09:24.312Z,3.08
2022-12-08T00:11:54.250Z,3.07
2022-12-08T00:14:25.723Z,3.10
2022-12-08T00:16:53.694Z,3.09
2022-12-08T00:19:21.695Z,3.11
2022-12-08T00:21:51.070Z,3.07
2022-12-08T00:24:19.880Z,3.06
2022-12-08T00:26:48.213Z,3.06
2022-12-08T00:29:17.736Z,3.01
2022-12-08T00:31:45.749Z,3.03
2022-12-08T00:34:13.983Z,3.02
2022-12-08T00:36:41.820Z,3.05
2022-12-08T00:39:11.779Z,3.05
2022-12-08T00:41:57.205Z,3.05
2022-12-08T00:44:25.046Z,3.05
2022-12-08T00:46:52.776Z,3.07
2022-12-08T00:49:20.869Z,3.07
2022-12-08T00:51:48.623Z,3.09
2022-12-08T00:54:18.115Z,3.10
2022-12-08T00:56:46.247Z,3.08
2022-12-08T00:59:13.920Z,3.10
2022-12-08T01:01:42.063Z,3.12
2022-12-08T01:04:15.445Z,3.13
2022-12-08T01:06:43.510Z,3.15
2022-12-08T01:09:13.648Z,3.15
2022-12-08T01:11:42.900Z,3.16
2022-12-08T01:14:10.582Z,3.15
2022-12-08T01:16:38.902Z,3.14
2022-12-08T01:19:06.676Z,3.10
2022-12-08T01:21:34.359Z,3.08
2022-12-08T01:24:02.844Z,3.10
2022-12-08T01:26:30.720Z,3.06
2022-12-08T01:28:59.903Z,3.05
2022-12-08T01:31:27.759Z,3.00
2022-12-08T01:33:55.500Z,3.01
2022-12-08T01:36:26.362Z,2.97
2022-12-08T01:38:55.333Z,2.98
2022-12-08T01:41:26.164Z,2.94
2022-12-08T01:44:01.456Z,2.92
2022-12-08T01:46:30.730Z,2.90
2022-12-08T01:49:04.143Z,2.91
2022-12-08T01:51:36.690Z,2.89
2022-12-08T01:54:06.813Z,2.89
2022-12-08T01:56:38.678Z,2.92
2022-12-08T01:59:08.084Z,2.94
2022-12-08T02:01:35.961Z,2.95
2022-12-08T02:04:05.236Z,2.97
2022-12-08T02:06:35.964Z,2.98
2022-12-08T02:09:06.573Z,2.99
2022-12-08T02:11:34.250Z,3.01
2022-12-08T02:14:05.208Z,3.03
2022-12-08T02:16:42.275Z,3.04
2022-12-08T02:19:44.936Z,3.07
2022-12-08T02:22:16.836Z,3.08
2022-12-08T02:24:51.816Z,3.14
2022-12-08T02:27:38.750Z,3.16
2022-12-08T02:30:25.804Z,3.15
2022-12-08T02:33:43.035Z,3.18
2022-12-08T02:36:18.729Z,3.21
2022-12-08T02:38:53.605Z,3.19
2022-12-08T02:41:32.276Z,3.19
2022-12-08T02:44:06.825Z,3.23
2022-12-08T02:46:40.583Z,3.25
2022-12-08T02:49:10.619Z,3.24
2022-12-08T02:51:38.358Z,3.25
2022-12-08T02:54:06.282Z,3.26
2022-12-08T02:56:51.745Z,3.26
2022-12-08T02:59:31.915Z,3.28
2022-12-08T03:02:18.845Z,3.30
2022-12-08T03:04:57.733Z,3.28
2022-12-08T03:07:32.388Z,3.27
2022-12-08T03:10:05.215Z,3.27
2022-12-08T03:12:39.297Z,3.29
2022-12-08T03:15:11.679Z,3.30
2022-12-08T03:17:41.811Z,3.31
2022-12-08T03:20:14.995Z,3.32
2022-12-08T03:22:44.018Z,3.33
2022-12-08T03:25:15.906Z,3.34
2022-12-08T03:27:44.298Z,3.35
2022-12-08T03:30:12.770Z,3.35
2022-12-08T03:32:47.774Z,3.37
2022-12-08T03:35:21.424Z,3.39
2022-12-08T03:37:49.420Z,3.39
2022-12-08T03:40:20.106Z,3.39
2022-12-08T03:42:47.788Z,3.41
2022-12-08T03:45:15.595Z,3.40
2022-12-08T03:47:43.640Z,3.42
2022-12-08T03:50:12.791Z,3.39
2022-12-08T03:52:41.889Z,3.38
2022-12-08T03:55:10.357Z,3.37
2022-12-08T03:57:38.062Z,3.38
2022-12-08T04:00:07.766Z,3.38
2022-12-08T04:02:35.588Z,3.37
2022-12-08T04:05:03.391Z,3.36
2022-12-08T04:07:31.392Z,3.34
2022-12-08T04:10:00.467Z,3.32
2022-12-08T04:12:28.147Z,3.32
2022-12-08T04:14:55.873Z,3.31
2022-12-08T04:17:23.525Z,3.30
2022-12-08T04:19:51.237Z,3.30
2022-12-08T04:22:18.983Z,3.26
2022-12-08T04:24:46.701Z,3.24
2022-12-08T04:27:15.765Z,3.21
2022-12-08T04:29:43.551Z,3.18
2022-12-08T04:32:11.277Z,3.15
2022-12-08T04:34:39.007Z,3.15
2022-12-08T04:37:06.775Z,3.14
2022-12-08T04:39:34.529Z,3.12
2022-12-08T04:42:02.227Z,3.12
2022-12-08T04:44:31.361Z,3.10
2022-12-08T04:46:59.153Z,3.11
2022-12-08T04:49:26.893Z,3.11
2022-12-08T04:51:54.540Z,3.10
2022-12-08T04:54:22.234Z,3.10
2022-12-08T04:56:50.006Z,3.11
2022-12-08T04:59:17.656Z,3.13
2022-12-08T05:01:46.831Z,3.13
2022-12-08T05:04:14.709Z,3.13
2022-12-08T05:06:42.408Z,3.14
2022-12-08T05:09:10.338Z,3.14
2022-12-08T05:11:46.943Z,3.14
2022-12-08T05:14:18.308Z,3.16
2022-12-08T05:16:48.504Z,3.15
2022-12-08T05:19:17.503Z,3.16
2022-12-08T05:21:45.996Z,3.17
2022-12-08T05:24:13.761Z,3.17
2022-12-08T05:26:41.407Z,3.15
2022-12-08T05:29:09.122Z,3.15
2022-12-08T05:31:36.859Z,3.15
2022-12-08T05:34:05.998Z,3.11
2022-12-08T05:36:33.675Z,3.11
2022-12-08T05:39:01.408Z,3.07
2022-12-08T05:41:29.112Z,3.00
2022-12-08T05:43:56.774Z,2.99
2022-12-08T05:46:29.231Z,2.97
2022-12-08T05:48:57.112Z,2.95
2022-12-08T05:51:26.166Z,2.96
2022-12-08T05:53:54.659Z,2.97
2022-12-08T05:56:23.724Z,2.99
2022-12-08T05:58:51.682Z,2.97
2022-12-08T06:01:24.377Z,2.95
2022-12-08T06:03:52.258Z,2.94
2022-12-08T06:06:20.460Z,2.94
2022-12-08T06:08:49.829Z,2.93
2022-12-08T06:11:22.592Z,2.96
2022-12-08T06:13:50.773Z,2.97
2022-12-08T06:16:21.725Z,2.94
2022-12-08T06:18:49.783Z,2.94
2022-12-08T06:21:18.440Z,2.95
2022-12-08T06:23:50.780Z,2.94
2022-12-08T06:26:19.006Z,2.94
2022-12-08T06:28:46.707Z,2.96
2022-12-08T06:31:17.478Z,2.92
2022-12-08T06:33:46.270Z,2.90
2022-12-08T06:36:15.621Z,2.88
2022-12-08T06:38:44.108Z,2.87
2022-12-08T06:41:13.861Z,2.85
2022-12-08T06:43:42.015Z,2.85
2022-12-08T06:46:12.045Z,2.86
2022-12-08T06:48:39.983Z,2.86
2022-12-08T06:51:09.544Z,2.83
2022-12-08T06:53:37.752Z,2.83
2022-12-08T06:56:06.039Z,2.82
2022-12-08T06:58:35.507Z,2.82
2022-12-08T07:01:08.505Z,2.79
2022-12-08T07:03:36.672Z,2.80
2022-12-08T07:06:05.108Z,2.80
2022-12-08T07:08:33.232Z,2.78
2022-12-08T07:11:01.285Z,2.77
2022-12-08T07:13:29.002Z,2.77
2022-12-08T07:15:58.147Z,2.74
2022-12-08T07:18:25.896Z,2.72
2022-12-08T07:20:53.598Z,2.71
2022-12-08T07:23:21.348Z,2.72
2022-12-08T07:25:49.051Z,2.74
2022-12-08T07:28:16.721Z,2.76
2022-12-08T07:30:44.567Z,2.77
2022-12-08T07:33:13.645Z,2.79
2022-12-08T07:35:46.366Z,2.81
2022-12-08T07:38:16.854Z,2.81
2022-12-08T07:40:44.620Z,2.83
2022-12-08T07:43:12.334Z,2.84
2022-12-08T07:45:41.652Z,2.85
2022-12-08T07:48:09.583Z,2.87
2022-12-08T07:50:39.178Z,2.87
2022-12-08T07:53:07.295Z,2.86
2022-12-08T07:55:35.299Z,2.89
2022-12-08T07:58:03.008Z,2.88
2022-12-08T08:00:31.610Z,2.87
2022-12-08T08:02:59.516Z,2.90
2022-12-08T08:05:27.417Z,2.89
2022-12-08T08:07:56.557Z,2.91
2022-12-08T08:10:24.310Z,2.93
2022-12-08T08:12:52.143Z,2.97
2022-12-08T08:15:21.315Z,3.00
2022-12-08T08:17:51.391Z,3.03
2022-12-08T08:20:19.492Z,3.08
2022-12-08T08:22:47.516Z,3.12
2022-12-08T08:25:17.439Z,3.13
2022-12-08T08:27:45.694Z,3.16
2022-12-08T08:30:20.139Z,3.18
2022-12-08T08:32:48.315Z,3.20
2022-12-08T08:35:15.995Z,3.24
2022-12-08T08:37:48.502Z,3.25
2022-12-08T08:40:18.247Z,3.29
2022-12-08T08:42:46.052Z,3.31
2022-12-08T08:45:13.828Z,3.33
2022-12-08T08:47:41.653Z,3.35
2022-12-08T08:50:10.743Z,3.38
2022-12-08T08:52:38.444Z,3.46
2022-12-08T08:55:06.940Z,3.45
2022-12-08T08:57:36.045Z,3.48
2022-12-08T09:00:04.985Z,3.49
2022-12-08T09:02:32.894Z,3.50
2022-12-08T09:05:00.723Z,3.53
2022-12-08T09:07:28.593Z,3.58
2022-12-08T09:10:01.400Z,3.61
2022-12-08T09:12:29.788Z,3.64
2022-12-08T09:14:59.079Z,3.66
2022-12-08T09:17:26.812Z,3.69
2022-12-08T09:19:54.546Z,3.72
2022-12-08T09:22:23.683Z,3.77
2022-12-08T09:24:51.387Z,3.77
2022-12-08T09:27:19.281Z,3.82
2022-12-08T09:29:46.955Z,3.86
2022-12-08T09:32:16.054Z,3.91
2022-12-08T09:34:47.684Z,3.91
2022-12-08T09:37:19.592Z,3.93
2022-12-08T09:39:48.038Z,4.00
2022-12-08T09:42:26.681Z,4.05
2022-12-08T09:45:03.891Z,4.11
2022-12-08T09:47:36.994Z,4.16
2022-12-08T09:50:09.688Z,4.17
2022-12-08T09:52:42.707Z,4.25
2022-12-08T09:55:18.277Z,4.33
2022-12-08T09:57:51.635Z,4.42
2022-12-08T10:00:23.443Z,4.50
2022-12-08T10:02:52.648Z,4.60
2022-12-08T10:05:21.738Z,4.61
2022-12-08T10:07:59.904Z,4.68
2022-12-08T10:10:36.721Z,4.80
2022-12-08T10:13:16.590Z,4.96
2022-12-08T10:15:51.603Z,5.06
2022-12-08T10:18:24.652Z,5.12
2022-12-08T10:20:59.003Z,5.13
2022-12-08T10:23:32.948Z,5.18
2022-12-08T10:26:03.419Z,5.21
2022-12-08T10:28:33.165Z,5.23
2022-12-08T10:31:01.095Z,5.25
2022-12-08T10:33:33.492Z,5.20
2022-12-08T10:36:02.916Z,5.21
2022-12-08T10:38:31.986Z,5.25
2022-12-08T10:41:05.652Z,5.22
2022-12-08T10:43:34.430Z,5.24
2022-12-08T10:46:13.729Z,5.28
2022-12-08T10:48:51.328Z,5.28
2022-12-08T10:51:30.479Z,5.29
2022-12-08T10:53:58.269Z,5.33
2022-12-08T10:56:29.022Z,5.38
2022-12-08T10:59:12.956Z,5.41
2022-12-08T11:01:42.556Z,5.36
2022-12-08T11:04:18.398Z,5.43
2022-12-08T11:06:47.504Z,5.41
2022-12-08T11:09:37.894Z,5.42
2022-12-08T11:12:13.753Z,5.44
2022-12-08T11:14:50.377Z,5.43
2022-12-08T11:17:25.473Z,5.42
2022-12-08T11:20:00.361Z,5.38
2022-12-08T11:22:33.475Z,5.42
2022-12-08T11:25:04.280Z,5.41
2022-12-08T11:27:34.453Z,5.42
2022-12-08T11:30:03.460Z,5.43
2022-12-08T11:32:31.935Z,5.42
2022-12-08T11:35:04.836Z,5.38
2022-12-08T11:37:35.175Z,5.37
2022-12-08T11:40:09.040Z,5.33
2022-12-08T11:42:47.029Z,5.36
2022-12-08T11:45:22.919Z,5.35
2022-12-08T11:47:58.161Z,5.32
2022-12-08T11:50:32.741Z,5.37
2022-12-08T11:53:02.786Z,5.39
2022-12-08T11:55:38.780Z,5.33
2022-12-08T11:58:15.807Z,5.33
2022-12-08T12:00:43.776Z,5.36
2022-12-08T12:03:22.506Z,5.40
2022-12-08T12:06:18.637Z,5.46
2022-12-08T12:09:07.893Z,5.46
2022-12-08T12:12:09.495Z,5.49
2022-12-08T12:14:57.796Z,5.47
2022-12-08T12:17:35.544Z,5.47
2022-12-08T12:20:12.084Z,5.56
2022-12-08T12:22:43.015Z,5.56
2022-12-08T12:25:19.057Z,5.61
2022-12-08T12:27:49.120Z,5.61
2022-12-08T12:30:22.820Z,5.67
2022-12-08T12:32:56.520Z,5.72
2022-12-08T12:35:34.525Z,5.74
2022-12-08T12:38:29.365Z,5.70
2022-12-08T12:41:02.262Z,5.71
2022-12-08T12:43:31.452Z,5.64
2022-12-08T12:46:32.905Z,5.59
2022-12-08T12:49:33.191Z,5.54
2022-12-08T12:52:00.903Z,5.50
2022-12-08T12:54:30.395Z,5.42
2022-12-08T12:57:17.411Z,5.35
2022-12-08T12:59:51.598Z,5.32
2022-12-08T13:02:25.801Z,5.30
2022-12-08T13:04:57.952Z,5.30
2022-12-08T13:07:27.955Z,5.25
2022-12-08T13:10:01.290Z,5.25
2022-12-08T13:12:30.690Z,5.29
2022-12-08T13:15:05.253Z,5.25
2022-12-08T13:17:34.722Z,5.22
2022-12-08T13:20:06.328Z,5.18
2022-12-08T13:23:02.981Z,5.18
2022-12-08T13:26:13.666Z,5.18
2022-12-08T13:29:15.053Z,5.16
2022-12-08T13:31:50.115Z,5.16
2022-12-08T13:34:22.894Z,5.15
2022-12-08T13:37:03.249Z,5.15
2022-12-08T13:39:36.443Z,5.15
2022-12-08T13:42:14.679Z,5.13
2022-12-08T13:48:05.959Z,5.16
2022-12-08T13:59:11.048Z,5.00
2022-12-08T14:01:45.761Z,4.93
2022-12-08T14:07:05.984Z,4.89
2022-12-08T14:09:37.505Z,4.86
2022-12-08T14:12:08.392Z,4.83
2022-12-08T14:17:29.004Z,4.76
2022-12-08T14:19:59.158Z,4.74
2022-12-08T14:22:34.341Z,4.73
2022-12-08T14:25:02.729Z,4.70
2022-12-08T14:27:37.175Z,4.73
2022-12-08T14:30:08.569Z,4.69
2022-12-08T14:32:40.054Z,4.66
2022-12-08T14:35:20.700Z,4.62
2022-12-08T14:37:51.098Z,4.62
2022-12-08T14:40:24.353Z,4.61
2022-12-08T14:42:55.311Z,4.57
2022-12-08T14:45:24.460Z,4.54
2022-12-08T14:47:52.328Z,4.49
2022-12-08T14:50:41.980Z,4.45
2022-12-08T14:53:16.049Z,4.43
2022-12-08T14:55:45.751Z,4.40
2022-12-08T14:58:19.700Z,4.37
2022-12-08T15:00:52.230Z,4.36
2022-12-08T15:03:22.962Z,4.28
2022-12-08T15:05:52.918Z,4.25
2022-12-08T15:08:20.787Z,4.22
2022-12-08T15:11:08.642Z,4.18
2022-12-08T15:13:36.411Z,4.11
2022-12-08T15:16:27.571Z,4.07
2022-12-08T15:19:17.365Z,4.05
2022-12-08T15:21:46.265Z,4.05
2022-12-08T15:24:15.096Z,4.04
2022-12-08T15:26:45.745Z,4.01
2022-12-08T15:29:19.768Z,3.99
2022-12-08T15:31:49.052Z,3.95
2022-12-08T15:34:16.901Z,3.97
2022-12-08T15:36:46.592Z,3.96
2022-12-08T15:39:25.787Z,3.92
2022-12-08T15:41:53.505Z,3.91
2022-12-08T15:44:21.306Z,3.87
2022-12-08T15:46:50.947Z,3.88
2022-12-08T15:49:21.067Z,3.87
2022-12-08T15:51:49.442Z,3.85
2022-12-08T15:54:17.448Z,3.83
2022-12-08T15:57:17.549Z,3.84
2022-12-08T15:59:35.591Z,3.82
2022-12-08T16:02:04.859Z,3.81
2022-12-08T16:05:33.311Z,3.81
2022-12-08T16:07:24.709Z,3.79
2022-12-08T16:09:53.130Z,3.75
2022-12-08T16:13:40.443Z,3.75
2022-12-08T16:18:24.589Z,3.72
2022-12-08T16:21:17.049Z,3.71
2022-12-08T16:23:43.662Z,3.69
2022-12-08T16:26:35.664Z,3.70
2022-12-08T16:29:02.185Z,3.65
2022-12-08T16:31:29.918Z,3.67
2022-12-08T16:33:59.043Z,3.66
2022-12-08T16:36:26.811Z,3.67
2022-12-08T16:38:54.599Z,3.69
2022-12-08T16:41:39.986Z,3.71
2022-12-08T16:44:07.753Z,3.72
2022-12-08T16:46:36.386Z,3.71
2022-12-08T16:49:05.805Z,3.70
2022-12-08T16:51:33.617Z,3.70
2022-12-08T16:54:01.377Z,3.69
2022-12-08T16:56:32.952Z,3.66
2022-12-08T16:59:01.867Z,3.67
2022-12-08T17:01:29.968Z,3.65
2022-12-08T17:06:47.048Z,3.64
2022-12-08T17:09:14.930Z,3.62
2022-12-08T17:11:43.828Z,3.62
2022-12-08T17:14:12.491Z,3.61
2022-12-08T17:16:40.996Z,3.63
2022-12-08T17:19:08.829Z,3.64
2022-12-08T17:21:36.907Z,3.63
2022-12-08T17:24:06.359Z,3.63
2022-12-08T17:26:34.104Z,3.62
2022-12-08T17:29:03.413Z,3.61
2022-12-08T17:31:32.239Z,3.61
2022-12-08T17:34:00.670Z,3.61
2022-12-08T17:36:28.486Z,3.60
2022-12-08T17:38:56.952Z,3.58
2022-12-08T17:41:26.046Z,3.54
2022-12-08T17:43:53.812Z,3.55
2022-12-08T17:46:22.771Z,3.53
2022-12-08T17:48:50.858Z,3.52
2022-12-08T17:51:18.752Z,3.50
2022-12-08T17:53:46.512Z,3.48
2022-12-08T17:56:16.631Z,3.49
2022-12-08T17:58:49.866Z,3.50
2022-12-08T18:01:21.967Z,3.50
2022-12-08T18:03:49.855Z,3.50
2022-12-08T18:06:18.115Z,3.48
2022-12-08T18:08:45.861Z,3.47
2022-12-08T18:11:17.880Z,3.46
2022-12-08T18:13:47.280Z,3.44
2022-12-08T18:16:15.939Z,3.43
2022-12-08T18:18:43.947Z,3.42
2022-12-08T18:21:13.033Z,3.39
2022-12-08T18:23:42.664Z,3.37
2022-12-08T18:26:13.624Z,3.37
2022-12-08T18:28:41.954Z,3.36
2022-12-08T18:31:12.672Z,3.32
2022-12-08T18:33:41.964Z,3.34
2022-12-08T18:36:11.832Z,3.34
2022-12-08T18:38:40.171Z,3.34
2022-12-08T18:41:10.376Z,3.35
2022-12-08T18:43:38.591Z,3.35
2022-12-08T18:46:09.480Z,3.35
2022-12-08T18:48:40.470Z,3.32
2022-12-08T18:51:11.147Z,3.35
2022-12-08T18:53:39.624Z,3.33
2022-12-08T18:56:08.630Z,3.33
2022-12-08T18:58:36.874Z,3.31
2022-12-08T19:01:04.706Z,3.31
2022-12-08T19:03:32.534Z,3.28
2022-12-08T19:06:05.893Z,3.24
2022-12-08T19:08:34.066Z,3.27
2022-12-08T19:11:01.880Z,3.27
2022-12-08T19:13:30.444Z,3.30
2022-12-08T19:15:58.327Z,3.29
2022-12-08T19:18:26.090Z,3.27
2022-12-08T19:20:56.717Z,3.29
2022-12-08T19:23:25.936Z,3.30
2022-12-08T19:25:53.998Z,3.29
2022-12-08T19:28:21.854Z,3.29
2022-12-08T19:30:49.872Z,3.29
2022-12-08T19:33:17.759Z,3.27
2022-12-08T19:35:52.215Z,3.25
2022-12-08T19:38:20.533Z,3.26
2022-12-08T19:41:07.457Z,3.26
2022-12-08T19:43:49.093Z,3.26
2022-12-08T19:46:17.174Z,3.30
2022-12-08T19:48:45.237Z,3.28
2022-12-08T19:51:13.289Z,3.30
2022-12-08T19:53:47.356Z,3.28
2022-12-08T19:56:17.038Z,3.23
2022-12-08T19:58:44.817Z,3.21
2022-12-08T20:01:12.632Z,3.17
2022-12-08T20:03:40.563Z,3.12
2022-12-08T20:06:14.097Z,3.08
2022-12-08T20:08:46.127Z,3.06
2022-12-08T20:11:18.077Z,3.06
2022-12-08T20:13:47.725Z,3.09
2022-12-08T20:16:16.596Z,3.08
2022-12-08T20:18:45.977Z,3.08
2022-12-08T20:21:13.821Z,3.06
2022-12-08T20:23:41.626Z,3.06
2022-12-08T20:26:12.418Z,3.07
2022-12-08T20:28:41.714Z,3.07
2022-12-08T20:31:09.654Z,3.08
2022-12-08T20:33:37.448Z,3.07
2022-12-08T20:36:07.519Z,3.09
2022-12-08T20:38:35.403Z,3.09
2022-12-08T20:41:03.200Z,3.06
2022-12-08T20:43:30.962Z,3.02
2022-12-08T20:46:00.398Z,3.02
2022-12-08T20:48:28.181Z,3.02
2022-12-08T20:50:56.161Z,2.99
2022-12-08T20:53:24.017Z,2.99
2022-12-08T20:55:51.859Z,3.00
2022-12-08T20:58:19.927Z,2.98
2022-12-08T21:00:47.835Z,2.95
2022-12-08T21:03:17.579Z,2.94
2022-12-08T21:05:49.665Z,2.92
2022-12-08T21:08:17.786Z,2.86
2022-12-08T21:10:45.912Z,2.87
2022-12-08T21:13:13.725Z,2.87
2022-12-08T21:15:46.488Z,2.88
2022-12-08T21:18:14.498Z,2.91
2022-12-08T21:20:43.888Z,2.91
2022-12-08T21:23:12.348Z,2.91
2022-12-08T21:25:41.576Z,2.92
2022-12-08T21:28:09.669Z,2.91
2022-12-08T21:30:38.842Z,2.92
2022-12-08T21:33:06.817Z,2.86
2022-12-08T21:35:34.891Z,2.86
2022-12-08T21:38:05.540Z,2.88
2022-12-08T21:40:34.792Z,2.85
2022-12-08T21:43:03.785Z,2.83
2022-12-08T21:45:32.621Z,2.85
2022-12-08T21:48:04.379Z,2.88
2022-12-08T21:50:35.192Z,2.87
2022-12-08T21:53:04.583Z,2.88
2022-12-08T21:55:32.565Z,2.89
2022-12-08T21:58:01.021Z,2.91
2022-12-08T22:00:29.227Z,2.92
2022-12-08T22:02:57.648Z,2.92
2022-12-08T22:05:25.490Z,2.91
2022-12-08T22:07:53.307Z,2.92
2022-12-08T22:10:23.421Z,2.94
2022-12-08T22:12:51.390Z,2.97
2022-12-08T22:15:19.535Z,2.97
2022-12-08T22:17:47.576Z,2.96
2022-12-08T22:20:16.863Z,2.97
2022-12-08T22:22:45.601Z,2.96
2022-12-08T22:25:13.750Z,2.97
2022-12-08T22:27:43.129Z,2.95
2022-12-08T22:30:12.361Z,2.96
2022-12-08T22:32:40.406Z,2.93
2022-12-08T22:35:08.830Z,2.87
2022-12-08T22:37:36.531Z,2.87
2022-12-08T22:40:05.372Z,2.87
2022-12-08T22:42:33.648Z,2.84
2022-12-08T22:45:03.982Z,2.84
2022-12-08T22:47:32.089Z,2.79
2022-12-08T22:49:59.990Z,2.78
2022-12-08T22:52:27.850Z,2.77
2022-12-08T22:54:55.778Z,2.76
2022-12-08T22:57:23.781Z,2.72
2022-12-08T22:59:51.733Z,2.71
2022-12-08T23:02:20.993Z,2.72
2022-12-08T23:04:49.354Z,2.71
2022-12-08T23:07:17.352Z,2.69
2022-12-08T23:09:45.366Z,2.68
2022-12-08T23:12:13.638Z,2.66
2022-12-08T23:14:41.630Z,2.64
2022-12-08T23:17:09.506Z,2.59
2022-12-08T23:19:39.685Z,2.56
2022-12-08T23:22:07.555Z,2.52
2022-12-08T23:24:35.463Z,2.51
2022-12-08T23:27:03.271Z,2.49
2022-12-08T23:29:31.014Z,2.45
2022-12-08T23:31:58.967Z,2.44
2022-12-08T23:34:27.409Z,2.43
2022-12-08T23:36:56.528Z,2.41
2022-12-08T23:39:24.777Z,2.41
2022-12-08T23:41:52.803Z,2.38
2022-12-08T23:44:20.692Z,2.39
2022-12-08T23:46:48.611Z,2.35
2022-12-08T23:49:17.025Z,2.34
2022-12-08T23:51:44.710Z,2.30
2022-12-08T23:54:14.224Z,2.24
2022-12-08T23:56:42.264Z,2.18
2022-12-08T23:59:10.560Z,2.13
